Terminal Aerodrome Forecast
Issued by NWS Twin Cities, MN

Home | Current Version | Previous Version | Text Only | Print | Product List | Glossary On
Versions: 1 2 3 4 5 6 7 8 9 10 11 12 13 14 15 16 17 18
340
FTUS43 KMPX 220847 AAA
TAFEAU
TAF AMD
KEAU 220847Z 2209/2306 VRB03KT P6SM SCT250
      TEMPO 2209/2211 2SM BR
     FM221200 VRB03KT P6SM BKN100
     FM222000 26006KT P6SM BKN100
     FM230300 31009KT P6SM OVC020=

USA.gov is the U.S. government's official web portal to all federal, state and local government web resources and services.